createdAt,value
2019-05-03T00:02:23.941Z,94758.86
2019-05-03T00:04:54.869Z,94757.36
2019-05-03T00:07:22.445Z,94751.44
2019-05-03T00:09:49.802Z,94756.33
2019-05-03T00:12:17.206Z,94749.59
2019-05-03T00:14:46.530Z,94747.53
2019-05-03T00:17:13.842Z,94742.85
2019-05-03T00:19:42.239Z,94746.88
2019-05-03T00:22:09.931Z,94737.76
2019-05-03T00:24:37.267Z,94742.48
2019-05-03T00:27:04.542Z,94736.09
2019-05-03T00:29:32.506Z,94724.64
2019-05-03T00:32:01.774Z,94734.51
2019-05-03T00:34:34.705Z,94731.89
2019-05-03T00:37:04.249Z,94724.41
2019-05-03T00:39:36.623Z,94726.61
2019-05-03T00:42:04.010Z,94723.20
2019-05-03T00:44:31.753Z,94723.34
2019-05-03T00:46:59.443Z,94724.54
2019-05-03T00:49:26.799Z,94718.22
2019-05-03T00:51:54.144Z,94717.92
2019-05-03T00:54:22.302Z,94711.45
2019-05-03T00:56:49.861Z,94711.66
2019-05-03T00:59:17.202Z,94710.36
2019-05-03T01:01:44.504Z,94713.86
2019-05-03T01:04:11.966Z,94709.25
2019-05-03T01:06:39.322Z,94706.64
2019-05-03T01:09:13.008Z,94696.59
2019-05-03T01:11:41.834Z,94691.63
2019-05-03T01:14:11.908Z,94693.02
2019-05-03T01:16:39.317Z,94688.87
2019-05-03T01:19:06.617Z,94690.96
2019-05-03T01:21:33.978Z,94689.23
2019-05-03T01:24:01.695Z,94689.17
2019-05-03T01:26:29.176Z,94689.65
2019-05-03T01:28:56.503Z,94687.77
2019-05-03T01:31:23.862Z,94689.17
2019-05-03T01:33:51.763Z,94690.38
2019-05-03T01:36:19.503Z,94690.03
2019-05-03T01:38:46.863Z,94693.30
2019-05-03T01:41:14.165Z,94687.66
2019-05-03T01:43:41.902Z,94692.70
2019-05-03T01:46:09.523Z,94694.95
2019-05-03T01:49:12.290Z,94689.99
2019-05-03T01:52:05.363Z,94686.94
2019-05-03T01:54:32.722Z,94685.80
2019-05-03T01:57:02.250Z,94680.34
2019-05-03T01:59:29.242Z,94679.21
2019-05-03T02:02:14.604Z,94676.19
2019-05-03T02:04:46.078Z,94680.50
2019-05-03T02:07:13.446Z,94675.06
2019-05-03T02:09:41.685Z,94680.05
2019-05-03T02:12:09.138Z,94676.23
2019-05-03T02:14:36.456Z,94677.62
2019-05-03T02:17:03.737Z,94673.41
2019-05-03T02:19:32.688Z,94674.67
2019-05-03T02:22:00.247Z,94666.36
2019-05-03T02:24:27.527Z,94672.17
2019-05-03T02:26:54.878Z,94669.30
2019-05-03T02:29:22.183Z,94663.34
2019-05-03T02:31:49.465Z,94663.25
2019-05-03T02:34:16.796Z,94651.33
2019-05-03T02:36:44.144Z,94663.60
2019-05-03T02:39:14.231Z,94669.88
2019-05-03T02:41:41.525Z,94666.43
2019-05-03T02:44:09.046Z,94671.63
2019-05-03T02:46:48.396Z,94668.92
2019-05-03T02:49:26.052Z,94671.70
2019-05-03T02:51:55.499Z,94665.98
2019-05-03T02:54:22.730Z,94658.00
2019-05-03T02:56:50.050Z,94650.16
2019-05-03T02:59:17.307Z,94653.84
2019-05-03T03:01:46.488Z,94653.04
2019-05-03T03:04:15.832Z,94647.38
2019-05-03T03:06:45.482Z,94645.97
2019-05-03T03:09:16.477Z,94651.45
2019-05-03T03:11:45.753Z,94648.39
2019-05-03T03:14:16.741Z,94653.86
2019-05-03T03:16:47.551Z,94649.21
2019-05-03T03:19:16.104Z,94650.73
2019-05-03T03:21:46.614Z,94650.32
2019-05-03T03:24:17.924Z,94646.76
2019-05-03T03:26:47.524Z,94650.91
2019-05-03T03:29:16.854Z,94643.70
2019-05-03T03:32:21.685Z,94644.64
2019-05-03T03:35:02.944Z,94646.58
2019-05-03T03:37:28.529Z,94647.26
2019-05-03T03:39:58.693Z,94638.89
2019-05-03T03:42:27.804Z,94637.91
2019-05-03T03:44:56.585Z,94630.70
2019-05-03T03:47:27.340Z,94634.30
2019-05-03T03:49:55.305Z,94634.98
2019-05-03T03:52:25.309Z,94637.31
2019-05-03T03:54:55.414Z,94638.97
2019-05-03T03:57:25.285Z,94640.63
2019-05-03T03:59:52.785Z,94637.80
2019-05-03T04:02:20.209Z,94646.66
2019-05-03T04:04:47.589Z,94652.97
2019-05-03T04:07:16.003Z,94655.92
2019-05-03T04:09:45.734Z,94657.71
2019-05-03T04:12:13.121Z,94660.89
2019-05-03T04:14:47.676Z,94658.06
2019-05-03T04:17:26.640Z,94661.22
2019-05-03T04:19:55.922Z,94657.34
2019-05-03T04:22:25.745Z,94655.81
2019-05-03T04:24:55.299Z,94665.42
2019-05-03T04:27:26.438Z,94671.48
2019-05-03T04:29:51.802Z,94682.08
2019-05-03T04:32:19.083Z,94680.70
2019-05-03T04:34:46.443Z,94681.86
2019-05-03T04:37:16.151Z,94685.50
2019-05-03T04:39:45.349Z,94679.72
2019-05-03T04:42:12.245Z,94678.42
2019-05-03T04:44:39.552Z,94688.83
2019-05-03T04:47:07.312Z,94685.31
2019-05-03T04:49:36.245Z,94692.81
2019-05-03T04:52:05.814Z,94695.09
2019-05-03T04:54:51.967Z,94699.89
2019-05-03T04:57:34.901Z,94701.52
2019-05-03T04:59:48.811Z,94701.41
2019-05-03T05:02:16.191Z,94706.52
2019-05-03T05:04:46.062Z,94706.36
2019-05-03T05:07:15.257Z,94708.96
2019-05-03T05:09:41.894Z,94704.03
2019-05-03T05:12:09.219Z,94710.13
2019-05-03T05:14:36.586Z,94712.56
2019-05-03T05:17:06.128Z,94698.95
2019-05-03T05:19:51.582Z,94695.42
2019-05-03T05:22:24.311Z,94697.08
2019-05-03T05:24:51.908Z,94712.42
2019-05-03T05:27:25.736Z,94703.39
2019-05-03T05:29:55.285Z,94706.88
2019-05-03T05:32:22.456Z,94705.88
2019-05-03T05:34:49.863Z,94707.74
2019-05-03T05:37:17.166Z,94706.69
2019-05-03T05:39:44.797Z,94692.91
2019-05-03T05:42:12.404Z,94690.72
2019-05-03T05:44:39.753Z,94701.66
2019-05-03T05:47:15.008Z,94711.17
2019-05-03T05:49:54.895Z,94701.27
2019-05-03T05:52:24.405Z,94709.50
2019-05-03T05:55:00.801Z,94704.05
2019-05-03T05:58:08.136Z,94702.88
2019-05-03T06:00:44.794Z,94706.33
2019-05-03T06:03:12.170Z,94711.55
2019-05-03T06:05:39.705Z,94712.45
2019-05-03T06:08:26.575Z,94711.64
2019-05-03T06:11:16.332Z,94711.41
2019-05-03T06:13:56.800Z,94713.63
2019-05-03T06:16:34.895Z,94713.73
2019-05-03T06:19:30.718Z,94711.13
2019-05-03T06:22:08.072Z,94704.69
2019-05-03T06:24:40.382Z,94713.43
2019-05-03T06:27:16.612Z,94710.67
2019-05-03T06:29:45.483Z,94709.59
2019-05-03T06:32:22.990Z,94716.67
2019-05-03T06:34:50.307Z,94710.58
2019-05-03T06:37:19.562Z,94704.74
2019-05-03T06:39:46.908Z,94716.39
2019-05-03T06:42:17.412Z,94718.41
2019-05-03T06:44:46.015Z,94715.67
2019-05-03T06:47:14.827Z,94718.62
2019-05-03T06:49:44.901Z,94722.52
2019-05-03T06:52:11.587Z,94724.00
2019-05-03T06:54:41.754Z,94726.27
2019-05-03T06:57:10.993Z,94718.44
2019-05-03T06:59:57.853Z,94718.22
2019-05-03T07:02:46.533Z,94712.16
2019-05-03T07:05:40.367Z,94712.25
2019-05-03T07:08:28.102Z,94708.27
2019-05-03T07:10:57.767Z,94711.91
2019-05-03T07:13:25.519Z,94713.71
2019-05-03T07:15:52.906Z,94708.15
2019-05-03T07:18:20.257Z,94715.80
2019-05-03T07:20:56.518Z,94711.48
2019-05-03T07:23:24.112Z,94715.90
2019-05-03T07:25:51.436Z,94722.59
2019-05-03T07:28:18.773Z,94728.77
2019-05-03T07:30:46.089Z,94721.55
2019-05-03T07:33:20.536Z,94725.74
2019-05-03T07:35:47.826Z,94725.41
2019-05-03T07:38:15.575Z,94721.28
2019-05-03T07:40:44.586Z,94718.81
2019-05-03T07:43:12.211Z,94720.71
2019-05-03T07:45:39.509Z,94716.89
2019-05-03T07:48:08.650Z,94724.20
2019-05-03T07:50:36.023Z,94719.59
2019-05-03T07:53:04.638Z,94715.86
2019-05-03T07:55:51.897Z,94715.75
2019-05-03T07:58:21.121Z,94713.26
2019-05-03T08:01:02.550Z,94706.50
2019-05-03T08:03:18.650Z,94703.11
2019-05-03T08:05:45.949Z,94700.88
2019-05-03T08:08:14.944Z,94695.72
2019-05-03T08:10:44.864Z,94698.52
2019-05-03T08:13:11.763Z,94697.44
2019-05-03T08:15:39.161Z,94697.09
2019-05-03T08:18:09.121Z,94698.66
2019-05-03T08:20:36.628Z,94698.39
2019-05-03T08:23:05.312Z,94696.23
2019-05-03T08:25:33.004Z,94695.92
2019-05-03T08:28:00.350Z,94693.00
2019-05-03T08:30:36.590Z,94688.70
2019-05-03T08:33:11.269Z,94691.32
2019-05-03T08:35:41.034Z,94690.30
2019-05-03T08:38:08.347Z,94697.59
2019-05-03T08:40:41.682Z,94693.08
2019-05-03T08:43:09.007Z,94696.37
2019-05-03T08:45:36.404Z,94687.97
2019-05-03T08:48:05.550Z,94691.48
2019-05-03T08:50:34.742Z,94696.03
2019-05-03T08:53:04.891Z,94697.53
2019-05-03T08:55:31.552Z,94696.96
2019-05-03T08:57:58.887Z,94695.26
2019-05-03T09:00:28.176Z,94702.02
2019-05-03T09:02:55.552Z,94697.20
2019-05-03T09:05:25.070Z,94699.07
2019-05-03T09:07:52.363Z,94700.02
2019-05-03T09:10:27.926Z,94694.79
2019-05-03T09:13:06.562Z,94695.22
2019-05-03T09:15:35.106Z,94687.46
2019-05-03T09:18:04.625Z,94696.17
2019-05-03T09:20:32.405Z,94690.11
2019-05-03T09:23:00.068Z,94690.82
2019-05-03T09:25:27.422Z,94683.16
2019-05-03T09:27:55.225Z,94687.06
2019-05-03T09:30:24.985Z,94689.72
2019-05-03T09:32:52.067Z,94691.67
2019-05-03T09:35:29.628Z,94679.19
2019-05-03T09:37:48.543Z,94677.22
2019-05-03T09:40:15.957Z,94672.84
2019-05-03T09:42:44.520Z,94673.26
2019-05-03T09:45:12.429Z,94675.27
2019-05-03T09:47:39.725Z,94677.62
2019-05-03T09:50:07.528Z,94680.14
2019-05-03T09:52:35.593Z,94678.54
2019-05-03T09:55:05.674Z,94689.98
2019-05-03T09:57:34.717Z,94689.72
2019-05-03T10:00:04.755Z,94690.11
2019-05-03T10:02:31.752Z,94690.82
2019-05-03T10:04:59.156Z,94697.88
2019-05-03T10:07:27.512Z,94698.90
2019-05-03T10:09:55.376Z,94699.03
2019-05-03T10:12:25.473Z,94706.03
2019-05-03T10:14:54.840Z,94697.87
2019-05-03T10:17:51.014Z,94697.16
2019-05-03T10:20:19.857Z,94698.69
2019-05-03T10:22:47.151Z,94695.69
2019-05-03T10:25:14.464Z,94689.88
2019-05-03T10:27:47.306Z,94686.33
2019-05-03T10:30:19.578Z,94688.63
2019-05-03T10:32:51.184Z,94679.30
2019-05-03T10:35:19.172Z,94677.55
2019-05-03T10:37:46.604Z,94676.04
2019-05-03T10:40:18.529Z,94677.29
2019-05-03T10:42:45.947Z,94664.44
2019-05-03T10:45:15.249Z,94658.36
2019-05-03T10:47:42.687Z,94658.21
2019-05-03T10:50:10.284Z,94663.08
2019-05-03T10:52:44.670Z,94655.30
2019-05-03T10:55:12.273Z,94657.11
2019-05-03T10:57:44.963Z,94656.89
2019-05-03T11:00:41.739Z,94655.50
2019-05-03T11:02:54.985Z,94660.78
2019-05-03T11:05:22.428Z,94652.69
2019-05-03T11:07:49.781Z,94651.34
2019-05-03T11:10:17.278Z,94653.20
2019-05-03T11:12:44.635Z,94650.33
2019-05-03T11:15:12.138Z,94656.91
2019-05-03T11:17:39.516Z,94649.94
2019-05-03T11:20:06.949Z,94652.71
2019-05-03T11:22:34.951Z,94653.66
2019-05-03T11:25:02.540Z,94652.17
2019-05-03T11:27:49.434Z,94649.27
2019-05-03T11:30:17.611Z,94649.91
2019-05-03T11:33:15.155Z,94643.05
2019-05-03T11:35:50.262Z,94642.47
2019-05-03T11:38:20.419Z,94637.55
2019-05-03T11:40:47.828Z,94644.91
2019-05-03T11:43:16.862Z,94638.62
2019-05-03T11:45:44.876Z,94639.85
2019-05-03T11:48:14.666Z,94641.55
2019-05-03T11:50:42.494Z,94647.72
2019-05-03T11:53:09.911Z,94646.48
2019-05-03T11:55:37.276Z,94647.73
2019-05-03T11:58:17.724Z,94646.14
2019-05-03T12:00:45.289Z,94653.31
2019-05-03T12:03:18.137Z,94657.66
2019-05-03T12:05:48.603Z,94649.25
2019-05-03T12:08:16.069Z,94654.31
2019-05-03T12:10:55.162Z,94650.76
2019-05-03T12:13:19.197Z,94650.41
2019-05-03T12:15:46.633Z,94645.31
2019-05-03T12:18:16.335Z,94646.19
2019-05-03T12:20:46.532Z,94647.02
2019-05-03T12:23:15.643Z,94650.36
2019-05-03T12:25:45.351Z,94642.67
2019-05-03T12:28:11.662Z,94647.97
2019-05-03T12:30:39.072Z,94641.10
2019-05-03T12:33:06.554Z,94635.99
2019-05-03T12:35:35.764Z,94637.80
2019-05-03T12:38:05.430Z,94630.39
2019-05-03T12:40:32.540Z,94637.83
2019-05-03T12:43:00.063Z,94632.96
2019-05-03T12:45:27.428Z,94633.35
2019-05-03T12:47:55.944Z,94630.48
2019-05-03T12:50:25.168Z,94631.02
2019-05-03T12:52:55.229Z,94619.91
2019-05-03T12:55:22.064Z,94622.68
2019-05-03T12:57:49.485Z,94605.69
2019-05-03T13:00:35.642Z,94618.19
2019-05-03T13:03:09.211Z,94604.42
2019-05-03T13:05:36.596Z,94613.22
2019-05-03T13:08:48.731Z,94613.57
2019-05-03T13:11:16.229Z,94621.88
2019-05-03T13:13:45.177Z,94617.22
2019-05-03T13:16:16.868Z,94619.94
2019-05-03T13:18:45.796Z,94621.11
2019-05-03T13:21:13.383Z,94618.66
2019-05-03T13:23:40.714Z,94614.22
2019-05-03T13:26:09.107Z,94608.94
2019-05-03T13:28:36.471Z,94603.09
2019-05-03T13:31:05.830Z,94597.98
2019-05-03T13:33:34.788Z,94597.25
2019-05-03T13:36:02.511Z,94601.11
2019-05-03T13:38:29.865Z,94601.95
2019-05-03T13:40:57.514Z,94601.58
2019-05-03T13:43:24.844Z,94594.80
2019-05-03T13:45:52.251Z,94598.03
2019-05-03T13:48:21.026Z,94590.78
2019-05-03T13:50:48.810Z,94596.72
2019-05-03T13:53:16.267Z,94591.67
2019-05-03T13:55:44.556Z,94592.49
2019-05-03T13:58:12.187Z,94590.30
2019-05-03T14:00:39.572Z,94587.06
2019-05-03T14:03:06.956Z,94585.47
2019-05-03T14:05:35.198Z,94580.16
2019-05-03T14:08:05.094Z,94584.66
2019-05-03T14:10:32.278Z,94584.47
2019-05-03T14:12:59.697Z,94586.31
2019-05-03T14:15:27.150Z,94583.16
2019-05-03T14:17:54.792Z,94582.85
2019-05-03T14:20:42.827Z,94584.75
2019-05-03T14:23:10.336Z,94584.80
2019-05-03T14:25:37.671Z,94579.64
2019-05-03T14:28:05.477Z,94582.16
2019-05-03T14:30:34.625Z,94574.48
2019-05-03T14:33:02.309Z,94578.26
2019-05-03T14:35:29.657Z,94572.42
2019-05-03T14:37:57.037Z,94582.23
2019-05-03T14:40:25.124Z,94567.97
2019-05-03T14:42:55.476Z,94569.13
2019-05-03T14:45:22.982Z,94574.36
2019-05-03T14:47:50.374Z,94573.83
2019-05-03T14:50:17.800Z,94578.36
2019-05-03T14:52:45.566Z,94577.15
2019-05-03T14:55:22.714Z,94578.85
2019-05-03T14:58:05.190Z,94580.91
2019-05-03T15:00:52.102Z,94579.14
2019-05-03T15:03:24.206Z,94579.47
2019-05-03T15:05:51.798Z,94584.17
2019-05-03T15:08:19.254Z,94582.58
2019-05-03T15:10:46.730Z,94584.69
2019-05-03T15:13:15.913Z,94581.20
2019-05-03T15:15:45.131Z,94577.15
2019-05-03T15:18:14.752Z,94574.13
2019-05-03T15:20:42.044Z,94576.70
2019-05-03T15:23:09.383Z,94578.94
2019-05-03T15:25:36.801Z,94573.20
2019-05-03T15:28:05.007Z,94572.63
2019-05-03T15:30:32.700Z,94570.35
2019-05-03T15:33:01.005Z,94569.42
2019-05-03T15:35:28.520Z,94567.23
2019-05-03T15:37:55.956Z,94568.84
2019-05-03T15:40:25.097Z,94575.23
2019-05-03T15:42:59.118Z,94575.64
2019-05-03T15:46:01.247Z,94574.70
2019-05-03T15:48:30.974Z,94564.95
2019-05-03T15:50:58.397Z,94564.66
2019-05-03T15:53:25.759Z,94561.01
2019-05-03T15:55:55.019Z,94565.67
2019-05-03T15:58:22.464Z,94574.58
2019-05-03T16:00:49.954Z,94577.23
2019-05-03T16:03:17.750Z,94574.70
2019-05-03T16:05:45.125Z,94578.60
2019-05-03T16:08:12.484Z,94576.42
2019-05-03T16:10:39.925Z,94576.45
2019-05-03T16:13:07.258Z,94585.64
2019-05-03T16:15:35.160Z,94578.86
2019-05-03T16:18:05.030Z,94588.91
2019-05-03T16:20:34.510Z,94586.02
2019-05-03T16:23:01.497Z,94590.41
2019-05-03T16:25:28.925Z,94586.23
2019-05-03T16:28:20.498Z,94592.78
2019-05-03T16:30:50.745Z,94591.02
2019-05-03T16:33:27.063Z,94591.01
2019-05-03T16:35:47.528Z,94595.66
2019-05-03T16:38:15.684Z,94598.47
2019-05-03T16:40:45.000Z,94607.00
2019-05-03T16:43:12.496Z,94596.42
2019-05-03T16:45:39.879Z,94603.67
2019-05-03T16:48:08.411Z,94611.60
2019-05-03T16:50:35.807Z,94608.05
2019-05-03T16:53:03.288Z,94616.73
2019-05-03T16:55:30.842Z,94610.48
2019-05-03T16:57:58.258Z,94617.53
2019-05-03T17:00:25.709Z,94617.45
2019-05-03T17:02:54.965Z,94620.66
2019-05-03T17:05:57.262Z,94624.38
2019-05-03T17:08:31.326Z,94622.39
2019-05-03T17:11:00.577Z,94628.41
2019-05-03T17:13:27.964Z,94624.70
2019-05-03T17:15:55.384Z,94631.86
2019-05-03T17:18:24.630Z,94628.55
2019-05-03T17:20:52.166Z,94630.41
2019-05-03T17:23:20.579Z,94626.93
2019-05-03T17:25:47.988Z,94627.22
2019-05-03T17:28:15.761Z,94629.17
2019-05-03T17:30:44.576Z,94624.21
2019-05-03T17:33:12.046Z,94627.02
2019-05-03T17:35:39.410Z,94627.23
2019-05-03T17:38:06.804Z,94630.94
2019-05-03T17:40:58.269Z,94634.67
2019-05-03T17:43:51.394Z,94635.58
2019-05-03T17:46:18.903Z,94629.00
2019-05-03T17:48:46.287Z,94636.21
2019-05-03T17:51:35.138Z,94637.30
2019-05-03T17:54:11.778Z,94637.98
2019-05-03T17:56:57.992Z,94640.26
2019-05-03T17:59:30.355Z,94642.53
2019-05-03T18:02:16.030Z,94644.81
2019-05-03T18:05:14.991Z,94645.78
2019-05-03T18:08:04.740Z,94653.99
2019-05-03T18:10:33.386Z,94653.66
2019-05-03T18:13:00.779Z,94656.21
2019-05-03T18:15:28.229Z,94656.94
2019-05-03T18:17:55.685Z,94658.11
2019-05-03T18:20:23.115Z,94651.23
2019-05-03T18:22:50.468Z,94654.96
2019-05-03T18:25:20.585Z,94653.20
2019-05-03T18:27:47.984Z,94659.56
2019-05-03T18:30:15.407Z,94664.27
2019-05-03T18:32:42.855Z,94672.03
2019-05-03T18:35:10.473Z,94679.58
2019-05-03T18:37:37.931Z,94676.67
2019-05-03T18:40:05.803Z,94682.03
2019-05-03T18:42:39.952Z,94681.02
2019-05-03T18:45:15.128Z,94677.67
2019-05-03T18:47:44.923Z,94685.14
2019-05-03T18:50:12.499Z,94683.41
2019-05-03T18:52:40.009Z,94681.94
2019-05-03T18:55:07.559Z,94688.42
2019-05-03T18:57:36.360Z,94687.30
2019-05-03T19:00:07.967Z,94696.02
2019-05-03T19:02:33.863Z,94696.07
2019-05-03T19:05:01.716Z,94698.69
2019-05-03T19:07:47.521Z,94701.50
2019-05-03T19:10:40.332Z,94704.26
2019-05-03T19:13:15.388Z,94703.80
2019-05-03T19:15:43.172Z,94707.77
2019-05-03T19:18:35.253Z,94716.30
2019-05-03T19:21:04.611Z,94708.05
2019-05-03T19:23:32.658Z,94710.09
2019-05-03T19:26:00.125Z,94709.24
2019-05-03T19:28:27.595Z,94722.02
2019-05-03T19:30:55.334Z,94713.22
2019-05-03T19:33:24.485Z,94719.91
2019-05-03T19:35:52.588Z,94718.94
2019-05-03T19:38:21.188Z,94728.62
2019-05-03T19:40:49.707Z,94717.84
2019-05-03T19:43:18.273Z,94708.92
2019-05-03T19:45:46.841Z,94721.95
2019-05-03T19:48:16.878Z,94725.25
2019-05-03T19:50:46.258Z,94722.70
2019-05-03T19:53:19.899Z,94727.88
2019-05-03T19:55:50.541Z,94721.46
2019-05-03T19:58:19.225Z,94720.98
2019-05-03T20:01:09.250Z,94718.26
2019-05-03T20:03:45.515Z,94719.87
2019-05-03T20:06:25.211Z,94722.56
2019-05-03T20:08:58.364Z,94724.52
2019-05-03T20:11:26.351Z,94722.19
2019-05-03T20:13:55.180Z,94723.77
2019-05-03T20:16:22.913Z,94718.52
2019-05-03T20:18:50.359Z,94714.08
2019-05-03T20:21:17.775Z,94716.05
2019-05-03T20:23:47.132Z,94718.50
2019-05-03T20:26:15.169Z,94715.25
2019-05-03T20:28:44.802Z,94716.88
2019-05-03T20:31:12.477Z,94719.81
2019-05-03T20:33:39.882Z,94725.73
2019-05-03T20:36:07.254Z,94722.58
2019-05-03T20:38:34.709Z,94718.70
2019-05-03T20:41:02.136Z,94716.12
2019-05-03T20:43:36.716Z,94717.66
2019-05-03T20:46:15.154Z,94723.55
2019-05-03T20:48:44.911Z,94713.95
2019-05-03T20:51:12.322Z,94715.16
2019-05-03T20:53:39.667Z,94716.56
2019-05-03T20:56:07.255Z,94719.83
2019-05-03T20:58:35.816Z,94721.76
2019-05-03T21:01:05.002Z,94719.16
2019-05-03T21:03:32.735Z,94719.25
2019-05-03T21:06:02.392Z,94728.67
2019-05-03T21:08:30.698Z,94717.72
2019-05-03T21:10:58.121Z,94725.79
2019-05-03T21:13:38.646Z,94719.67
2019-05-03T21:16:14.804Z,94719.72
2019-05-03T21:18:57.959Z,94727.58
2019-05-03T21:21:35.204Z,94722.25
2019-05-03T21:24:11.652Z,94719.30
2019-05-03T21:26:39.586Z,94720.39
2019-05-03T21:29:07.163Z,94726.75
2019-05-03T21:31:35.199Z,94729.53
2019-05-03T21:34:05.623Z,94724.86
2019-05-03T21:36:34.901Z,94724.32
2019-05-03T21:39:02.891Z,94721.67
2019-05-03T21:41:30.251Z,94721.01
2019-05-03T21:43:57.693Z,94719.14
2019-05-03T21:46:40.116Z,94723.14
2019-05-03T21:49:15.852Z,94716.05
2019-05-03T21:51:44.967Z,94716.92
2019-05-03T21:54:12.480Z,94716.45
2019-05-03T21:56:39.987Z,94713.91
2019-05-03T21:59:07.490Z,94716.52
2019-05-03T22:01:37.644Z,94709.69
2019-05-03T22:04:05.052Z,94717.14
2019-05-03T22:06:32.460Z,94711.13
2019-05-03T22:08:59.823Z,94716.58
2019-05-03T22:11:27.177Z,94714.23
2019-05-03T22:13:57.144Z,94723.17
2019-05-03T22:16:46.832Z,94712.73
2019-05-03T22:19:16.280Z,94719.63
2019-05-03T22:22:02.997Z,94706.48
2019-05-03T22:24:37.666Z,94716.45
2019-05-03T22:27:15.395Z,94715.70
2019-05-03T22:29:44.656Z,94717.45
2019-05-03T22:32:12.243Z,94713.03
2019-05-03T22:34:39.612Z,94712.55
2019-05-03T22:37:06.967Z,94704.84
2019-05-03T22:39:34.326Z,94705.68
2019-05-03T22:42:01.665Z,94704.31
2019-05-03T22:44:29.066Z,94705.17
2019-05-03T22:46:56.431Z,94698.59
2019-05-03T22:49:25.724Z,94701.69
2019-05-03T22:51:54.350Z,94701.63
2019-05-03T22:54:22.004Z,94697.71
2019-05-03T22:56:49.367Z,94700.11
2019-05-03T22:59:16.737Z,94695.64
2019-05-03T23:01:45.784Z,94702.28
2019-05-03T23:04:14.704Z,94694.05
2019-05-03T23:06:46.716Z,94689.52
2019-05-03T23:09:11.616Z,94693.92
2019-05-03T23:11:38.963Z,94687.38
2019-05-03T23:14:06.323Z,94687.16
2019-05-03T23:16:35.628Z,94685.11
2019-05-03T23:19:05.325Z,94684.06
2019-05-03T23:21:54.479Z,94684.64
2019-05-03T23:24:22.026Z,94676.83
2019-05-03T23:26:49.363Z,94676.30
2019-05-03T23:29:16.749Z,94671.40
2019-05-03T23:31:44.833Z,94674.09
2019-05-03T23:34:12.443Z,94667.61
2019-05-03T23:36:39.795Z,94663.09
2019-05-03T23:39:08.609Z,94661.66
2019-05-03T23:41:36.026Z,94662.86
2019-05-03T23:44:04.793Z,94659.22
2019-05-03T23:46:56.627Z,94647.22
2019-05-03T23:49:25.003Z,94645.11
2019-05-03T23:51:55.521Z,94646.09
2019-05-03T23:54:24.744Z,94641.42
2019-05-03T23:56:55.022Z,94634.19
2019-05-03T23:59:22.345Z,94637.02
